createdAt,value
2019-06-01T00:00:12.711Z,14.61
2019-06-01T00:01:12.679Z,14.68
2019-06-01T00:02:12.672Z,14.60
2019-06-01T00:03:12.660Z,14.54
2019-06-01T00:04:12.645Z,14.53
2019-06-01T00:05:12.655Z,14.64
2019-06-01T00:06:12.623Z,14.47
2019-06-01T00:07:12.638Z,14.62
2019-06-01T00:08:12.603Z,14.65
2019-06-01T00:09:12.586Z,14.61
2019-06-01T00:10:12.592Z,14.52
2019-06-01T00:11:12.583Z,14.52
2019-06-01T00:12:12.553Z,14.50
2019-06-01T00:13:12.541Z,14.60
2019-06-01T00:14:12.526Z,14.65
2019-06-01T00:15:12.517Z,14.56
2019-06-01T00:16:12.524Z,14.49
2019-06-01T00:17:12.494Z,14.53
2019-06-01T00:18:12.535Z,14.44
2019-06-01T00:19:12.469Z,14.42
2019-06-01T00:20:12.464Z,14.50
2019-06-01T00:21:12.466Z,14.49
2019-06-01T00:22:12.437Z,14.44
2019-06-01T00:23:12.442Z,14.47
2019-06-01T00:24:12.415Z,14.39
2019-06-01T00:25:12.401Z,14.43
2019-06-01T00:26:12.432Z,14.39
2019-06-01T00:27:12.378Z,14.46
2019-06-01T00:28:12.364Z,14.38
2019-06-01T00:29:12.355Z,14.38
2019-06-01T00:30:26.170Z,14.44
2019-06-01T00:31:13.350Z,14.37
2019-06-01T00:32:12.320Z,14.43
2019-06-01T00:33:12.308Z,14.28
2019-06-01T00:34:12.294Z,14.32
2019-06-01T00:35:12.284Z,14.27
2019-06-01T00:36:12.270Z,14.34
2019-06-01T00:37:12.282Z,14.29
2019-06-01T00:38:12.247Z,14.25
2019-06-01T00:39:12.239Z,14.27
2019-06-01T00:40:12.232Z,14.24
2019-06-01T00:41:12.214Z,14.24
2019-06-01T00:42:12.258Z,14.25
2019-06-01T00:43:12.192Z,14.20
2019-06-01T00:44:12.178Z,14.28
2019-06-01T00:45:12.168Z,14.21
2019-06-01T00:46:12.157Z,14.12
2019-06-01T00:47:12.172Z,14.14
2019-06-01T00:48:12.143Z,14.14
2019-06-01T00:49:12.122Z,14.19
2019-06-01T00:50:12.112Z,14.17
2019-06-01T00:51:12.099Z,14.13
2019-06-01T00:52:12.088Z,14.21
2019-06-01T00:53:12.118Z,14.19
2019-06-01T00:54:12.068Z,14.25
2019-06-01T00:55:12.058Z,14.16
2019-06-01T00:56:12.041Z,14.16
2019-06-01T00:57:12.028Z,14.09
2019-06-01T00:58:12.034Z,14.06
2019-06-01T00:59:12.004Z,14.16
2019-06-01T01:00:11.995Z,14.04
2019-06-01T01:01:11.981Z,13.92
2019-06-01T01:02:11.969Z,13.96
2019-06-01T01:03:11.974Z,14.02
2019-06-01T01:04:11.944Z,14.01
2019-06-01T01:05:11.934Z,13.96
2019-06-01T01:06:11.923Z,13.87
2019-06-01T01:07:11.912Z,13.95
2019-06-01T01:08:11.918Z,13.91
2019-06-01T01:09:11.890Z,13.81
2019-06-01T01:10:11.876Z,13.84
2019-06-01T01:11:11.863Z,13.80
2019-06-01T01:12:11.854Z,13.79
2019-06-01T01:13:11.862Z,13.83
2019-06-01T01:14:11.828Z,13.70
2019-06-01T01:15:11.848Z,13.79
2019-06-01T01:16:11.805Z,13.63
2019-06-01T01:17:11.793Z,13.71
2019-06-01T01:18:11.806Z,13.76
2019-06-01T01:19:11.770Z,13.79
2019-06-01T01:20:11.759Z,13.80
2019-06-01T01:21:11.746Z,13.76
2019-06-01T01:22:11.736Z,13.71
2019-06-01T01:23:11.724Z,13.65
2019-06-01T01:24:11.731Z,13.76
2019-06-01T01:25:11.701Z,13.70
2019-06-01T01:26:11.718Z,13.69
2019-06-01T01:27:11.679Z,13.70
2019-06-01T01:28:11.664Z,13.69
2019-06-01T01:29:11.673Z,13.71
2019-06-01T01:30:11.644Z,13.69
2019-06-01T01:31:14.223Z,13.67
2019-06-01T01:32:11.617Z,13.67
2019-06-01T01:33:11.607Z,13.70
2019-06-01T01:34:11.617Z,13.65
2019-06-01T01:35:11.585Z,13.71
2019-06-01T01:36:11.619Z,13.61
2019-06-01T01:37:11.559Z,13.69
2019-06-01T01:38:11.548Z,13.52
2019-06-01T01:39:11.538Z,13.52
2019-06-01T01:40:11.542Z,13.61
2019-06-01T01:41:11.515Z,13.63
2019-06-01T01:42:11.502Z,13.54
2019-06-01T01:43:11.488Z,13.52
2019-06-01T01:44:11.476Z,13.49
2019-06-01T01:45:11.506Z,13.46
2019-06-01T01:46:11.451Z,13.46
2019-06-01T01:47:14.321Z,13.46
2019-06-01T01:48:11.430Z,13.51
2019-06-01T01:49:11.416Z,13.49
2019-06-01T01:50:11.403Z,13.41
2019-06-01T01:51:11.410Z,13.49
2019-06-01T01:52:11.418Z,13.43
2019-06-01T01:53:11.367Z,13.44
2019-06-01T01:54:11.354Z,13.44
2019-06-01T01:55:11.350Z,13.33
2019-06-01T01:56:11.357Z,13.41
2019-06-01T01:57:11.320Z,13.44
2019-06-01T01:58:11.307Z,13.44
2019-06-01T01:59:11.298Z,13.40
2019-06-01T02:00:11.283Z,13.30
2019-06-01T02:01:22.214Z,13.44
2019-06-01T02:02:12.302Z,13.46
2019-06-01T02:03:11.247Z,13.40
2019-06-01T02:04:11.234Z,13.37
2019-06-01T02:05:11.223Z,13.27
2019-06-01T02:06:11.223Z,13.43
2019-06-01T02:07:11.199Z,13.30
2019-06-01T02:08:11.207Z,13.43
2019-06-01T02:09:11.176Z,13.36
2019-06-01T02:10:11.162Z,13.40
2019-06-01T02:11:11.151Z,13.38
2019-06-01T02:12:11.140Z,13.32
2019-06-01T02:13:11.146Z,13.32
2019-06-01T02:14:11.114Z,13.27
2019-06-01T02:15:11.103Z,13.24
2019-06-01T02:16:11.091Z,13.21
2019-06-01T02:17:11.078Z,13.21
2019-06-01T02:18:11.091Z,13.24
2019-06-01T02:19:11.060Z,13.15
2019-06-01T02:20:11.044Z,13.29
2019-06-01T02:21:11.030Z,13.21
2019-06-01T02:22:11.020Z,13.29
2019-06-01T02:23:11.048Z,13.27
2019-06-01T02:24:10.997Z,13.18
2019-06-01T02:25:10.982Z,13.20
2019-06-01T02:26:10.968Z,13.32
2019-06-01T02:27:10.957Z,13.30
2019-06-01T02:28:10.946Z,13.20
2019-06-01T02:29:10.956Z,13.29
2019-06-01T02:30:10.932Z,13.27
2019-06-01T02:31:10.912Z,13.22
2019-06-01T02:32:10.898Z,13.20
2019-06-01T02:33:10.887Z,13.21
2019-06-01T02:34:10.876Z,13.33
2019-06-01T02:35:10.882Z,13.20
2019-06-01T02:36:10.850Z,13.17
2019-06-01T02:37:10.839Z,13.24
2019-06-01T02:38:10.837Z,13.20
2019-06-01T02:39:10.812Z,13.12
2019-06-01T02:40:10.819Z,13.17
2019-06-01T02:41:10.788Z,13.11
2019-06-01T02:42:10.784Z,13.14
2019-06-01T02:43:10.767Z,13.20
2019-06-01T02:44:10.797Z,13.15
2019-06-01T02:45:10.748Z,13.15
2019-06-01T02:46:10.732Z,13.17
2019-06-01T02:47:10.722Z,13.17
2019-06-01T02:48:10.706Z,13.06
2019-06-01T02:49:10.699Z,13.21
2019-06-01T02:50:10.705Z,13.24
2019-06-01T02:51:10.674Z,13.15
2019-06-01T02:52:10.659Z,13.09
2019-06-01T02:53:10.648Z,13.12
2019-06-01T02:54:10.677Z,13.04
2019-06-01T02:55:10.625Z,13.09
2019-06-01T02:56:10.610Z,13.09
2019-06-01T02:57:10.603Z,13.07
2019-06-01T02:58:10.589Z,13.00
2019-06-01T02:59:10.574Z,13.14
2019-06-01T03:00:17.627Z,12.89
2019-06-01T03:01:10.554Z,12.95
2019-06-01T03:02:13.518Z,12.95
2019-06-01T03:03:10.535Z,12.92
2019-06-01T03:04:10.520Z,12.88
2019-06-01T03:05:10.531Z,12.95
2019-06-01T03:06:10.510Z,12.93
2019-06-01T03:07:10.490Z,12.84
2019-06-01T03:08:10.473Z,12.87
2019-06-01T03:09:10.475Z,12.93
2019-06-01T03:10:10.485Z,12.85
2019-06-01T03:11:10.450Z,12.92
2019-06-01T03:12:10.428Z,12.87
2019-06-01T03:13:10.446Z,12.89
2019-06-01T03:14:10.411Z,12.93
2019-06-01T03:15:10.388Z,12.87
2019-06-01T03:16:10.395Z,12.92
2019-06-01T03:17:10.400Z,12.95
2019-06-01T03:18:10.351Z,13.06
2019-06-01T03:19:10.345Z,12.95
2019-06-01T03:20:10.333Z,12.87
2019-06-01T03:21:10.344Z,12.93
2019-06-01T03:22:10.318Z,12.88
2019-06-01T03:23:10.311Z,12.82
2019-06-01T03:24:10.283Z,12.88
2019-06-01T03:25:10.265Z,12.95
2019-06-01T03:26:10.259Z,12.82
2019-06-01T03:27:10.267Z,12.78
2019-06-01T03:28:10.246Z,12.89
2019-06-01T03:29:10.220Z,12.77
2019-06-01T03:30:12.952Z,12.79
2019-06-01T03:31:11.204Z,12.82
2019-06-01T03:32:33.304Z,12.99
2019-06-01T03:33:11.176Z,12.95
2019-06-01T03:34:11.391Z,13.00
2019-06-01T03:35:10.148Z,13.02
2019-06-01T03:36:10.135Z,13.04
2019-06-01T03:37:10.150Z,13.06
2019-06-01T03:38:11.153Z,13.09
2019-06-01T03:39:10.099Z,13.00
2019-06-01T03:40:19.556Z,13.02
2019-06-01T03:41:12.317Z,13.09
2019-06-01T03:42:11.640Z,13.07
2019-06-01T03:43:11.293Z,13.18
2019-06-01T03:44:10.040Z,13.11
2019-06-01T03:45:10.037Z,13.17
2019-06-01T03:46:10.014Z,13.04
2019-06-01T03:47:10.012Z,13.11
2019-06-01T03:48:10.014Z,13.02
2019-06-01T03:49:09.982Z,13.04
2019-06-01T03:50:09.981Z,13.00
2019-06-01T03:51:09.964Z,13.02
2019-06-01T03:52:09.947Z,13.07
2019-06-01T03:53:10.006Z,12.96
2019-06-01T03:54:10.197Z,13.02
2019-06-01T03:55:09.976Z,12.93
2019-06-01T03:56:11.045Z,12.99
2019-06-01T03:57:11.151Z,13.02
2019-06-01T03:58:11.121Z,13.00
2019-06-01T03:59:11.270Z,12.97
2019-06-01T04:00:09.846Z,13.00
2019-06-01T04:01:11.012Z,13.11
2019-06-01T04:02:09.825Z,13.03
2019-06-01T04:03:09.829Z,13.02
2019-06-01T04:04:09.800Z,13.14
2019-06-01T04:05:09.803Z,13.12
2019-06-01T04:06:09.780Z,13.03
2019-06-01T04:07:10.731Z,13.04
2019-06-01T04:08:09.794Z,13.17
2019-06-01T04:09:10.068Z,13.22
2019-06-01T04:10:10.093Z,13.12
2019-06-01T04:11:09.891Z,13.27
2019-06-01T04:12:09.833Z,13.21
2019-06-01T04:13:09.707Z,13.25
2019-06-01T04:14:09.947Z,13.25
2019-06-01T04:15:13.600Z,13.20
2019-06-01T04:16:10.656Z,13.22
2019-06-01T04:17:10.171Z,13.32
2019-06-01T04:18:10.252Z,13.30
2019-06-01T04:19:10.017Z,13.30
2019-06-01T04:20:10.220Z,13.29
2019-06-01T04:21:10.284Z,13.30
2019-06-01T04:22:10.174Z,13.29
2019-06-01T04:23:10.223Z,13.33
2019-06-01T04:24:10.196Z,13.40
2019-06-01T04:25:10.285Z,13.30
2019-06-01T04:26:10.313Z,13.37
2019-06-01T04:27:10.231Z,13.33
2019-06-01T04:28:10.272Z,13.30
2019-06-01T04:29:10.381Z,13.51
2019-06-01T04:30:09.542Z,13.43
2019-06-01T04:31:10.865Z,13.36
2019-06-01T04:32:10.628Z,13.51
2019-06-01T04:33:09.456Z,13.47
2019-06-01T04:34:09.449Z,13.51
2019-06-01T04:35:09.450Z,13.51
2019-06-01T04:36:09.432Z,13.47
2019-06-01T04:37:09.432Z,13.52
2019-06-01T04:38:09.427Z,13.47
2019-06-01T04:39:09.562Z,13.65
2019-06-01T04:40:09.559Z,13.74
2019-06-01T04:41:09.773Z,13.76
2019-06-01T04:42:09.781Z,13.81
2019-06-01T04:43:10.157Z,13.79
2019-06-01T04:44:10.043Z,13.76
2019-06-01T04:45:10.784Z,13.81
2019-06-01T04:46:10.344Z,13.94
2019-06-01T04:47:10.733Z,13.92
2019-06-01T04:48:10.492Z,14.01
2019-06-01T04:49:10.532Z,13.91
2019-06-01T04:50:09.261Z,13.95
2019-06-01T04:51:09.270Z,14.12
2019-06-01T04:52:09.235Z,14.02
2019-06-01T04:53:09.228Z,14.14
2019-06-01T04:54:09.210Z,14.10
2019-06-01T04:55:09.203Z,14.07
2019-06-01T04:56:09.198Z,14.25
2019-06-01T04:57:09.194Z,14.29
2019-06-01T04:58:09.186Z,14.32
2019-06-01T04:59:09.152Z,14.29
2019-06-01T05:00:22.611Z,14.35
2019-06-01T05:01:10.927Z,14.37
2019-06-01T05:02:09.440Z,14.42
2019-06-01T05:03:10.341Z,14.47
2019-06-01T05:04:09.172Z,14.50
2019-06-01T05:05:09.378Z,14.46
2019-06-01T05:06:09.297Z,14.53
2019-06-01T05:07:09.308Z,14.60
2019-06-01T05:08:09.409Z,14.52
2019-06-01T05:09:09.363Z,14.62
2019-06-01T05:10:09.472Z,14.67
2019-06-01T05:11:10.261Z,14.68
2019-06-01T05:12:09.367Z,14.67
2019-06-01T05:13:09.422Z,14.80
2019-06-01T05:14:09.705Z,14.81
2019-06-01T05:15:09.883Z,14.94
2019-06-01T05:16:10.021Z,14.90
2019-06-01T05:17:10.140Z,15.05
2019-06-01T05:18:10.046Z,15.08
2019-06-01T05:19:10.058Z,15.05
2019-06-01T05:20:10.304Z,15.09
2019-06-01T05:21:08.892Z,15.12
2019-06-01T05:22:08.879Z,15.23
2019-06-01T05:23:08.929Z,15.13
2019-06-01T05:24:08.929Z,15.21
2019-06-01T05:25:09.140Z,15.24
2019-06-01T05:26:08.839Z,15.27
2019-06-01T05:27:09.031Z,15.31
2019-06-01T05:28:09.142Z,15.26
2019-06-01T05:29:09.357Z,15.28
2019-06-01T05:30:09.516Z,15.39
2019-06-01T05:31:12.563Z,15.24
2019-06-01T05:32:10.420Z,15.30
2019-06-01T05:33:25.521Z,15.27
2019-06-01T05:34:09.791Z,15.41
2019-06-01T05:35:09.655Z,15.38
2019-06-01T05:36:09.969Z,15.42
2019-06-01T05:37:10.702Z,15.36
2019-06-01T05:38:08.701Z,15.45
2019-06-01T05:39:08.708Z,15.51
2019-06-01T05:40:08.673Z,15.49
2019-06-01T05:41:10.345Z,15.49
2019-06-01T05:42:08.936Z,15.57
2019-06-01T05:43:13.842Z,15.52
2019-06-01T05:44:10.760Z,15.63
2019-06-01T05:45:09.136Z,15.72
2019-06-01T05:46:09.840Z,15.67
2019-06-01T05:47:08.591Z,15.74
2019-06-01T05:48:08.594Z,15.79
2019-06-01T05:49:08.589Z,15.85
2019-06-01T05:50:08.557Z,15.97
2019-06-01T05:51:08.587Z,16.07
2019-06-01T05:52:08.533Z,16.12
2019-06-01T05:53:08.525Z,16.11
2019-06-01T05:54:08.508Z,16.14
2019-06-01T05:55:08.521Z,16.26
2019-06-01T05:56:08.489Z,16.35
2019-06-01T05:57:08.475Z,16.25
2019-06-01T05:58:08.462Z,16.22
2019-06-01T05:59:09.806Z,16.45
2019-06-01T06:00:08.435Z,16.48
2019-06-01T06:01:08.422Z,16.62
2019-06-01T06:02:08.419Z,16.65
2019-06-01T06:03:08.448Z,16.78
2019-06-01T06:04:08.394Z,16.71
2019-06-01T06:05:08.406Z,16.88
2019-06-01T06:06:08.397Z,16.95
2019-06-01T06:07:08.354Z,16.92
2019-06-01T06:08:08.343Z,17.13
2019-06-01T06:09:08.329Z,17.17
2019-06-01T06:10:08.353Z,17.26
2019-06-01T06:11:08.307Z,17.36
2019-06-01T06:12:08.302Z,17.54
2019-06-01T06:13:08.282Z,17.89
2019-06-01T06:14:08.270Z,18.18
2019-06-01T06:15:08.268Z,18.59
2019-06-01T06:16:08.273Z,19.11
2019-06-01T06:17:08.241Z,19.68
2019-06-01T06:18:08.228Z,20.09
2019-06-01T06:19:08.213Z,20.62
2019-06-01T06:20:08.207Z,21.09
2019-06-01T06:21:08.223Z,21.61
2019-06-01T06:22:08.180Z,22.17
2019-06-01T06:23:08.170Z,22.77
2019-06-01T06:24:08.155Z,22.97
2019-06-01T06:25:08.144Z,23.27
2019-06-01T06:26:08.226Z,23.75
2019-06-01T06:27:08.120Z,24.41
2019-06-01T06:28:08.125Z,24.95
2019-06-01T06:29:08.096Z,25.44
2019-06-01T06:30:08.104Z,25.90
2019-06-01T06:31:08.084Z,26.06
2019-06-01T06:32:09.286Z,26.05
2019-06-01T06:33:08.055Z,26.36
2019-06-01T06:34:08.043Z,26.74
2019-06-01T06:35:08.045Z,27.04
2019-06-01T06:36:08.024Z,27.48
2019-06-01T06:37:08.033Z,27.91
2019-06-01T06:38:08.001Z,27.57
2019-06-01T06:39:07.981Z,27.76
2019-06-01T06:40:07.972Z,28.04
2019-06-01T06:41:07.960Z,27.92
2019-06-01T06:42:07.967Z,28.17
2019-06-01T06:43:18.918Z,28.63
2019-06-01T06:44:08.934Z,29.04
2019-06-01T06:45:07.926Z,29.49
2019-06-01T06:46:07.913Z,29.47
2019-06-01T06:47:07.916Z,29.74
2019-06-01T06:48:07.883Z,29.86
2019-06-01T06:49:09.946Z,29.94
2019-06-01T06:50:07.862Z,30.05
2019-06-01T06:51:07.855Z,30.33
2019-06-01T06:52:07.863Z,30.11
2019-06-01T06:53:07.841Z,29.82
2019-06-01T06:54:07.827Z,29.63
2019-06-01T06:55:07.800Z,29.63
2019-06-01T06:56:07.801Z,29.93
2019-06-01T06:57:07.793Z,29.87
2019-06-01T06:58:07.963Z,29.55
2019-06-01T06:59:07.769Z,29.84
2019-06-01T07:00:07.751Z,30.14
2019-06-01T07:01:11.789Z,30.53
2019-06-01T07:02:07.728Z,30.86
2019-06-01T07:03:07.738Z,31.01
2019-06-01T07:04:12.763Z,31.13
2019-06-01T07:05:08.714Z,31.64
2019-06-01T07:06:07.690Z,31.46
2019-06-01T07:07:07.677Z,31.84
2019-06-01T07:08:07.688Z,32.11
2019-06-01T07:09:07.649Z,32.57
2019-06-01T07:10:07.652Z,32.58
2019-06-01T07:11:07.659Z,32.86
2019-06-01T07:12:07.617Z,32.86
2019-06-01T07:13:07.652Z,32.84
2019-06-01T07:14:07.602Z,32.61
2019-06-01T07:15:07.593Z,32.67
2019-06-01T07:16:07.574Z,32.89
2019-06-01T07:17:07.572Z,33.22
2019-06-01T07:18:07.568Z,33.49
2019-06-01T07:19:07.594Z,33.55
2019-06-01T07:20:07.561Z,33.34
2019-06-01T07:21:07.530Z,33.53
2019-06-01T07:22:07.521Z,33.46
2019-06-01T07:23:07.506Z,33.20
2019-06-01T07:24:07.519Z,32.92
2019-06-01T07:25:07.475Z,32.76
2019-06-01T07:26:07.486Z,33.19
2019-06-01T07:27:07.474Z,33.30
2019-06-01T07:28:07.459Z,33.11
2019-06-01T07:29:07.474Z,32.61
2019-06-01T07:30:07.500Z,32.76
2019-06-01T07:31:07.463Z,32.52
2019-06-01T07:32:07.400Z,32.11
2019-06-01T07:33:07.388Z,31.92
2019-06-01T07:34:07.411Z,32.29
2019-06-01T07:35:07.378Z,32.58
2019-06-01T07:36:07.360Z,33.13
2019-06-01T07:37:07.348Z,32.93
2019-06-01T07:38:07.336Z,32.88
2019-06-01T07:39:07.327Z,33.33
2019-06-01T07:40:07.382Z,33.71
2019-06-01T07:41:07.307Z,34.02
2019-06-01T07:42:07.322Z,34.07
2019-06-01T07:43:07.277Z,33.90
2019-06-01T07:44:07.299Z,33.68
2019-06-01T07:45:07.262Z,33.65
2019-06-01T07:46:07.292Z,33.33
2019-06-01T07:47:07.238Z,33.03
2019-06-01T07:48:07.229Z,32.95
2019-06-01T07:49:07.234Z,32.44
2019-06-01T07:50:07.208Z,31.50
2019-06-01T07:51:07.218Z,31.21
2019-06-01T07:52:12.597Z,31.39
2019-06-01T07:53:08.174Z,32.10
2019-06-01T07:54:07.166Z,32.71
2019-06-01T07:55:07.164Z,33.36
2019-06-01T07:56:07.172Z,33.23
2019-06-01T07:57:07.144Z,33.68
2019-06-01T07:58:07.134Z,34.39
2019-06-01T07:59:07.120Z,34.81
2019-06-01T08:00:07.110Z,34.95
2019-06-01T08:01:07.095Z,34.79
2019-06-01T08:02:07.119Z,34.96
2019-06-01T08:03:07.086Z,35.02
2019-06-01T08:04:07.067Z,34.92
2019-06-01T08:05:07.057Z,34.11
2019-06-01T08:06:07.048Z,34.26
2019-06-01T08:07:07.032Z,34.74
2019-06-01T08:08:07.062Z,34.89
2019-06-01T08:09:07.014Z,35.03
2019-06-01T08:10:07.004Z,34.64
2019-06-01T08:11:06.999Z,34.63
2019-06-01T08:12:06.994Z,34.96
2019-06-01T08:13:06.994Z,35.57
2019-06-01T08:14:06.962Z,35.73
2019-06-01T08:15:06.948Z,35.37
2019-06-01T08:16:06.952Z,35.29
2019-06-01T08:17:06.940Z,34.89
2019-06-01T08:18:06.949Z,34.56
2019-06-01T08:19:06.931Z,34.88
2019-06-01T08:20:06.906Z,34.69
2019-06-01T08:21:06.898Z,34.64
2019-06-01T08:22:06.902Z,34.83
2019-06-01T08:23:06.900Z,34.81
2019-06-01T08:24:07.093Z,34.39
2019-06-01T08:25:06.854Z,34.38
2019-06-01T08:26:06.843Z,35.08
2019-06-01T08:27:06.830Z,35.57
2019-06-01T08:28:06.833Z,35.86
2019-06-01T08:29:06.830Z,36.67
2019-06-01T08:30:06.799Z,37.28
2019-06-01T08:31:06.795Z,36.94
2019-06-01T08:32:06.781Z,36.15
2019-06-01T08:33:06.775Z,35.91
2019-06-01T08:34:06.823Z,36.06
2019-06-01T08:35:09.061Z,36.42
2019-06-01T08:36:06.739Z,36.64
2019-06-01T08:37:06.781Z,36.91
2019-06-01T08:38:06.718Z,37.10
2019-06-01T08:39:06.749Z,37.13
2019-06-01T08:40:06.728Z,37.61
2019-06-01T08:41:06.694Z,37.85
2019-06-01T08:42:06.686Z,37.51
2019-06-01T08:43:06.722Z,36.51
2019-06-01T08:44:06.680Z,35.28
2019-06-01T08:45:06.712Z,34.77
2019-06-01T08:46:06.641Z,34.22
2019-06-01T08:47:06.634Z,34.64
2019-06-01T08:48:06.621Z,34.58
2019-06-01T08:49:06.616Z,34.80
2019-06-01T08:50:06.646Z,34.95
2019-06-01T08:51:06.597Z,35.03
2019-06-01T08:52:06.607Z,34.79
2019-06-01T08:53:06.569Z,34.19
2019-06-01T08:54:06.579Z,33.61
2019-06-01T08:55:06.568Z,33.89
2019-06-01T08:56:06.570Z,33.97
2019-06-01T08:57:06.535Z,34.20
2019-06-01T08:58:06.528Z,34.88
2019-06-01T08:59:06.543Z,35.02
2019-06-01T09:00:06.504Z,35.01
2019-06-01T09:01:06.524Z,34.64
2019-06-01T09:02:06.492Z,35.02
2019-06-01T09:03:06.500Z,35.63
2019-06-01T09:04:06.458Z,35.77
2019-06-01T09:05:06.453Z,35.13
2019-06-01T09:06:06.440Z,34.32
2019-06-01T09:07:06.461Z,33.92
2019-06-01T09:08:06.418Z,33.73
2019-06-01T09:09:06.415Z,33.82
2019-06-01T09:10:06.399Z,33.58
2019-06-01T09:11:06.398Z,33.73
2019-06-01T09:12:06.389Z,33.98
2019-06-01T09:13:06.404Z,33.52
2019-06-01T09:14:06.362Z,33.98
2019-06-01T09:15:06.350Z,34.22
2019-06-01T09:16:06.351Z,34.35
2019-06-01T09:17:06.337Z,34.32
2019-06-01T09:18:06.343Z,34.45
2019-06-01T09:19:06.324Z,34.64
2019-06-01T09:20:06.311Z,34.64
2019-06-01T09:21:06.294Z,34.80
2019-06-01T09:22:06.287Z,34.72
2019-06-01T09:23:06.300Z,35.01
2019-06-01T09:24:06.275Z,35.23
2019-06-01T09:25:06.274Z,35.30
2019-06-01T09:26:06.260Z,35.33
2019-06-01T09:27:06.231Z,35.55
2019-06-01T09:28:06.248Z,35.47
2019-06-01T09:29:06.212Z,35.26
2019-06-01T09:30:06.212Z,34.48
2019-06-01T09:31:06.194Z,33.87
2019-06-01T09:32:10.535Z,33.45
2019-06-01T09:33:07.213Z,32.71
2019-06-01T09:34:06.158Z,32.33
2019-06-01T09:35:06.169Z,32.58
2019-06-01T09:36:06.142Z,32.92
2019-06-01T09:37:06.128Z,33.71
2019-06-01T09:38:06.131Z,34.61
2019-06-01T09:39:06.136Z,34.94
2019-06-01T09:40:06.106Z,34.89
2019-06-01T09:41:06.098Z,34.79
2019-06-01T09:42:06.082Z,34.74
2019-06-01T09:43:06.083Z,34.72
2019-06-01T09:44:06.054Z,35.03
2019-06-01T09:45:06.086Z,35.28
2019-06-01T09:46:06.038Z,35.72
2019-06-01T09:47:06.022Z,36.07
2019-06-01T09:48:06.027Z,35.85
2019-06-01T09:49:06.048Z,35.54
2019-06-01T09:50:06.014Z,35.55
2019-06-01T09:51:05.994Z,35.35
2019-06-01T09:52:05.973Z,35.52
2019-06-01T09:53:05.963Z,35.76
2019-06-01T09:54:05.954Z,36.03
2019-06-01T09:55:05.966Z,36.11
2019-06-01T09:56:05.940Z,36.39
2019-06-01T09:57:05.956Z,36.58
2019-06-01T09:58:05.931Z,36.43
2019-06-01T09:59:05.907Z,36.56
2019-06-01T10:00:05.924Z,36.82
2019-06-01T10:01:05.885Z,37.28
2019-06-01T10:02:05.878Z,37.26
2019-06-01T10:03:05.862Z,37.46
2019-06-01T10:04:05.858Z,37.83
2019-06-01T10:05:05.848Z,37.81
2019-06-01T10:06:05.864Z,37.73
2019-06-01T10:07:05.865Z,37.10
2019-06-01T10:08:05.815Z,37.17
2019-06-01T10:09:05.820Z,37.32
2019-06-01T10:10:05.813Z,37.42
2019-06-01T10:11:05.810Z,37.20
2019-06-01T10:12:05.783Z,37.32
2019-06-01T10:13:07.912Z,37.29
2019-06-01T10:14:05.764Z,37.13
2019-06-01T10:15:05.758Z,36.75
2019-06-01T10:16:05.797Z,36.72
2019-06-01T10:17:05.762Z,37.19
2019-06-01T10:18:05.758Z,37.35
2019-06-01T10:19:05.712Z,37.32
2019-06-01T10:20:05.704Z,37.33
2019-06-01T10:21:05.699Z,37.38
2019-06-01T10:22:05.708Z,37.81
2019-06-01T10:23:05.670Z,37.68
2019-06-01T10:24:05.663Z,37.85
2019-06-01T10:25:05.659Z,38.03
2019-06-01T10:26:05.662Z,38.10
2019-06-01T10:27:05.663Z,37.93
2019-06-01T10:28:05.641Z,37.80
2019-06-01T10:29:05.624Z,38.15
2019-06-01T10:30:05.607Z,38.38
2019-06-01T10:31:05.598Z,38.20
2019-06-01T10:32:05.630Z,38.46
2019-06-01T10:33:05.575Z,38.48
2019-06-01T10:34:05.665Z,38.55
2019-06-01T10:35:05.560Z,39.09
2019-06-01T10:36:19.722Z,38.80
2019-06-01T10:37:06.570Z,38.55
2019-06-01T10:38:05.526Z,38.55
2019-06-01T10:39:05.530Z,38.42
2019-06-01T10:40:05.526Z,38.08
2019-06-01T10:41:05.516Z,37.73
2019-06-01T10:42:05.518Z,37.55
2019-06-01T10:43:05.481Z,37.04
2019-06-01T10:44:05.477Z,36.70
2019-06-01T10:45:05.471Z,36.75
2019-06-01T10:46:05.462Z,36.77
2019-06-01T10:47:05.479Z,36.85
2019-06-01T10:48:05.444Z,37.20
2019-06-01T10:49:05.434Z,37.13
2019-06-01T10:50:05.422Z,37.14
2019-06-01T10:51:05.420Z,36.67
2019-06-01T10:52:05.396Z,36.45
2019-06-01T10:53:05.438Z,36.48
2019-06-01T10:54:05.382Z,36.33
2019-06-01T10:55:05.387Z,36.45
2019-06-01T10:56:05.357Z,36.54
2019-06-01T10:57:05.378Z,36.91
2019-06-01T10:58:05.369Z,36.86
2019-06-01T10:59:05.335Z,36.85
2019-06-01T11:00:05.323Z,37.07
2019-06-01T11:01:05.313Z,37.17
2019-06-01T11:02:05.298Z,36.72
2019-06-01T11:03:05.327Z,36.42
2019-06-01T11:04:05.281Z,36.38
2019-06-01T11:05:05.273Z,35.93
2019-06-01T11:06:05.256Z,35.11
2019-06-01T11:07:05.250Z,35.35
2019-06-01T11:08:05.244Z,35.35
2019-06-01T11:09:05.257Z,35.86
2019-06-01T11:10:05.220Z,36.31
2019-06-01T11:11:05.219Z,36.15
2019-06-01T11:12:05.208Z,36.33
2019-06-01T11:13:05.206Z,36.63
2019-06-01T11:14:05.202Z,36.85
2019-06-01T11:15:05.190Z,36.76
2019-06-01T11:16:05.163Z,36.99
2019-06-01T11:17:05.156Z,37.51
2019-06-01T11:18:05.145Z,37.67
2019-06-01T11:19:05.197Z,37.62
2019-06-01T11:20:05.118Z,37.70
2019-06-01T11:21:05.114Z,38.14
2019-06-01T11:22:05.106Z,37.83
2019-06-01T11:23:05.094Z,37.38
2019-06-01T11:24:05.105Z,36.95
2019-06-01T11:25:05.091Z,37.05
2019-06-01T11:26:05.068Z,36.63
2019-06-01T11:27:05.058Z,36.67
2019-06-01T11:28:05.068Z,37.09
2019-06-01T11:29:05.077Z,37.71
2019-06-01T11:30:05.047Z,37.73
2019-06-01T11:31:05.013Z,37.71
2019-06-01T11:32:05.007Z,37.51
2019-06-01T11:33:05.008Z,37.42
2019-06-01T11:34:05.016Z,37.31
2019-06-01T11:35:05.000Z,36.77
2019-06-01T11:36:04.997Z,36.49
2019-06-01T11:37:05.772Z,36.58
2019-06-01T11:38:04.952Z,36.61
2019-06-01T11:39:04.952Z,36.68
2019-06-01T11:40:04.961Z,36.65
2019-06-01T11:41:04.931Z,36.49
2019-06-01T11:42:04.923Z,36.67
2019-06-01T11:43:04.901Z,36.43
2019-06-01T11:44:04.899Z,36.19
2019-06-01T11:45:04.907Z,36.29
2019-06-01T11:46:04.871Z,36.46
2019-06-01T11:47:04.863Z,36.60
2019-06-01T11:48:04.856Z,36.56
2019-06-01T11:49:04.846Z,36.73
2019-06-01T11:50:04.866Z,36.76
2019-06-01T11:51:04.822Z,36.92
2019-06-01T11:52:04.813Z,37.13
2019-06-01T11:53:04.804Z,37.41
2019-06-01T11:54:04.790Z,37.55
2019-06-01T11:55:04.791Z,37.32
2019-06-01T11:56:04.794Z,37.31
2019-06-01T11:57:04.756Z,37.21
2019-06-01T11:58:04.779Z,37.23
2019-06-01T11:59:04.737Z,36.99
2019-06-01T12:00:04.730Z,37.17
2019-06-01T12:01:04.762Z,37.28
2019-06-01T12:02:04.705Z,37.26
2019-06-01T12:03:04.701Z,37.13
2019-06-01T12:04:04.688Z,36.86
2019-06-01T12:05:04.686Z,36.63
2019-06-01T12:06:04.711Z,36.77
2019-06-01T12:07:17.061Z,36.27
2019-06-01T12:08:05.652Z,36.31
2019-06-01T12:09:04.639Z,36.42
2019-06-01T12:10:04.626Z,36.17
2019-06-01T12:11:04.649Z,35.92
2019-06-01T12:12:04.625Z,36.07
2019-06-01T12:13:04.599Z,36.17
2019-06-01T12:14:05.502Z,36.58
2019-06-01T12:15:04.635Z,36.48
2019-06-01T12:16:04.570Z,36.49
2019-06-01T12:17:04.574Z,36.67
2019-06-01T12:18:04.542Z,36.75
2019-06-01T12:19:04.543Z,36.33
2019-06-01T12:20:04.532Z,36.04
2019-06-01T12:21:04.529Z,36.04
2019-06-01T12:22:04.548Z,36.21
2019-06-01T12:23:04.497Z,36.36
2019-06-01T12:24:04.502Z,36.26
2019-06-01T12:25:04.493Z,36.29
2019-06-01T12:26:04.476Z,36.60
2019-06-01T12:27:04.501Z,36.72
2019-06-01T12:28:04.452Z,36.26
2019-06-01T12:29:04.442Z,36.31
2019-06-01T12:30:04.429Z,36.61
2019-06-01T12:31:04.440Z,36.56
2019-06-01T12:32:04.436Z,36.60
2019-06-01T12:33:04.416Z,36.48
2019-06-01T12:34:04.473Z,36.65
2019-06-01T12:35:04.378Z,36.67
2019-06-01T12:36:04.375Z,36.72
2019-06-01T12:37:04.358Z,36.75
2019-06-01T12:38:06.862Z,36.87
2019-06-01T12:39:04.340Z,36.77
2019-06-01T12:40:07.597Z,36.75
2019-06-01T12:41:04.329Z,36.70
2019-06-01T12:42:04.308Z,36.58
2019-06-01T12:43:04.441Z,36.60
2019-06-01T12:44:04.287Z,36.29
2019-06-01T12:45:04.312Z,36.23
2019-06-01T12:46:07.738Z,36.12
2019-06-01T12:47:04.279Z,36.30
2019-06-01T12:48:04.271Z,36.19
2019-06-01T12:49:04.274Z,36.15
2019-06-01T12:50:04.230Z,36.42
2019-06-01T12:51:04.216Z,36.75
2019-06-01T12:52:04.210Z,37.24